Garelochhead, United Kingdom
Current Conditions -  °F | °C
As of 1:20 AM on Tuesday 21 Oct 2014 (Local Time) from EGPF Reporting Station
Heavy Rain Heavy Rain  
Wind Chill: 54°   Ceiling: 4000
Heat Index: 54°   Visibility: 2.1mi
Dew Point: 52°   Wind: 17mph
Humidity: 94%   Direction: 180°S
Pressure: 29.23"   Gusts: NA
Location:  56.08°N, 4.83°W
Report Text: EGPF 210020Z AUTO 18015KT 3400 +RA FEW012/// BKN040/// //////CB 12/11 Q0990
Loading
Personal Weather Stations






























Interactive Weather Map
Tropical Storm Tracking
New forecast layout! Learn more

10-Day Weather Forecast

Advertisements
Track Severe Weather on mobile